createdAt,value
2022-08-17T00:02:26.825Z,100761.53
2022-08-17T00:04:54.263Z,100768.84
2022-08-17T00:07:21.323Z,100760.19
2022-08-17T00:09:48.275Z,100753.06
2022-08-17T00:12:42.595Z,100771.19
2022-08-17T00:15:02.297Z,100770.78
2022-08-17T00:17:29.118Z,100757.91
2022-08-17T00:19:55.672Z,100626.25
2022-08-17T00:22:31.671Z,100679.09
2022-08-17T00:25:04.038Z,100766.16
2022-08-17T00:27:30.694Z,100764.53
2022-08-17T00:29:57.372Z,100763.13
2022-08-17T00:33:15.411Z,100777.78
2022-08-17T00:35:12.873Z,100783.47
2022-08-17T00:37:39.989Z,100710.34
2022-08-17T00:40:08.884Z,100748.19
2022-08-17T00:42:35.837Z,100776.00
2022-08-17T00:45:04.798Z,100775.63
2022-08-17T00:47:31.408Z,100767.84
2022-08-17T00:49:58.071Z,100773.16
2022-08-17T00:52:32.407Z,100765.13
2022-08-17T00:54:59.659Z,100777.03
2022-08-17T00:57:31.300Z,100722.41
2022-08-17T01:00:03.784Z,100709.25
2022-08-17T01:02:40.466Z,100786.66
2022-08-17T01:05:23.666Z,100791.25
2022-08-17T01:07:52.728Z,100747.72
2022-08-17T01:10:57.124Z,100751.72
2022-08-17T01:13:12.257Z,100771.25
2022-08-17T01:15:46.076Z,100770.06
2022-08-17T01:18:13.825Z,100787.59
2022-08-17T01:20:52.126Z,100706.06
2022-08-17T01:23:21.437Z,100789.59
2022-08-17T01:25:52.305Z,100787.47
2022-08-17T01:28:52.526Z,100789.50
2022-08-17T01:31:08.966Z,100782.03
2022-08-17T01:33:36.219Z,100770.31
2022-08-17T01:36:04.215Z,100783.69
2022-08-17T01:38:31.942Z,100781.22
2022-08-17T01:41:06.917Z,100784.16
2022-08-17T01:43:44.116Z,100760.00
2022-08-17T01:46:21.080Z,100792.41
2022-08-17T01:48:48.459Z,100778.94
2022-08-17T01:51:16.092Z,100789.47
2022-08-17T01:53:47.500Z,100680.09
2022-08-17T01:56:18.273Z,100789.25
2022-08-17T01:58:44.979Z,100782.00
2022-08-17T02:01:14.813Z,100800.84
2022-08-17T02:03:42.103Z,100758.41
2022-08-17T02:06:28.048Z,100807.06
2022-08-17T02:09:02.938Z,100799.72
2022-08-17T02:11:32.874Z,100745.88
2022-08-17T02:14:03.182Z,100718.03
2022-08-17T02:16:36.843Z,100804.25
2022-08-17T02:19:06.905Z,100806.97
2022-08-17T02:21:34.314Z,100806.03
2022-08-17T02:24:01.012Z,100813.47
2022-08-17T02:26:28.185Z,100722.28
2022-08-17T02:28:54.945Z,100759.75
2022-08-17T02:31:21.547Z,100786.50
2022-08-17T02:34:00.294Z,100822.88
2022-08-17T02:36:31.117Z,100789.44
2022-08-17T02:38:58.758Z,100823.72
2022-08-17T02:41:25.483Z,100830.81
2022-08-17T02:43:53.195Z,100774.28
2022-08-17T02:46:19.867Z,100825.47
2022-08-17T02:48:46.625Z,100773.25
2022-08-17T02:51:13.170Z,100821.47
2022-08-17T02:53:39.763Z,100805.94
2022-08-17T02:56:06.813Z,100824.19
2022-08-17T02:58:35.765Z,100796.81
2022-08-17T03:01:05.913Z,100820.59
2022-08-17T03:03:33.015Z,100826.03
2022-08-17T03:05:59.882Z,100741.84
2022-08-17T03:08:27.281Z,100807.63
2022-08-17T03:10:53.802Z,100817.59
2022-08-17T03:13:20.817Z,100812.59
2022-08-17T03:15:48.474Z,100799.56
2022-08-17T03:18:25.661Z,100796.31
2022-08-17T03:20:59.357Z,100822.28
2022-08-17T03:23:27.475Z,100821.22
2022-08-17T03:25:54.589Z,100811.09
2022-08-17T03:28:22.156Z,100825.44
2022-08-17T03:30:48.996Z,100816.91
2022-08-17T03:33:16.236Z,100764.63
2022-08-17T03:35:43.045Z,100799.03
2022-08-17T03:38:11.574Z,100787.88
2022-08-17T03:40:58.203Z,100742.03
2022-08-17T03:43:32.257Z,100718.34
2022-08-17T03:46:28.487Z,100759.97
2022-08-17T03:49:23.684Z,100794.34
2022-08-17T03:52:08.922Z,100807.47
2022-08-17T03:55:04.459Z,100812.31
2022-08-17T03:57:31.481Z,100767.56
2022-08-17T03:59:58.128Z,100800.97
2022-08-17T04:02:29.025Z,100795.41
2022-08-17T04:04:56.247Z,100800.81
2022-08-17T04:07:25.000Z,100778.34
2022-08-17T04:09:51.757Z,100803.38
2022-08-17T04:12:20.572Z,100796.78
2022-08-17T04:14:53.465Z,100789.66
2022-08-17T04:17:27.477Z,100795.53
2022-08-17T04:19:55.184Z,100686.66
2022-08-17T04:22:33.070Z,100773.22
2022-08-17T04:25:18.410Z,100807.31
2022-08-17T04:27:45.005Z,100800.75
2022-08-17T04:30:12.179Z,100829.19
2022-08-17T04:33:09.707Z,100843.00
2022-08-17T04:35:39.686Z,100840.94
2022-08-17T04:38:08.327Z,100832.72
2022-08-17T04:40:53.555Z,100837.31
2022-08-17T04:43:24.477Z,100774.81
2022-08-17T04:45:57.646Z,100835.66
2022-08-17T04:48:29.801Z,100855.91
2022-08-17T04:51:03.051Z,100838.38
2022-08-17T04:53:29.654Z,100829.13
2022-08-17T04:55:58.785Z,100683.66
2022-08-17T04:58:25.475Z,100824.34
2022-08-17T05:00:52.152Z,100789.34
2022-08-17T05:03:18.975Z,100826.09
2022-08-17T05:05:49.800Z,100783.25
2022-08-17T05:08:19.329Z,100867.44
2022-08-17T05:10:47.478Z,100857.84
2022-08-17T05:13:26.050Z,100873.81
2022-08-17T05:15:56.129Z,100865.72
2022-08-17T05:18:24.527Z,100831.28
2022-08-17T05:20:52.456Z,100902.19
2022-08-17T05:23:21.595Z,100895.25
2022-08-17T05:25:51.135Z,100894.81
2022-08-17T05:28:23.528Z,100877.75
2022-08-17T05:30:56.603Z,100859.94
2022-08-17T05:33:29.163Z,100912.19
2022-08-17T05:35:58.634Z,100905.41
2022-08-17T05:38:27.497Z,100909.75
2022-08-17T05:40:54.828Z,100880.78
2022-08-17T05:43:30.299Z,100899.31
2022-08-17T05:46:06.316Z,100904.28
2022-08-17T05:48:44.695Z,100906.34
2022-08-17T05:51:29.983Z,100909.19
2022-08-17T05:54:05.703Z,100913.00
2022-08-17T05:56:55.384Z,100915.38
2022-08-17T06:00:08.144Z,100922.31
2022-08-17T06:03:02.278Z,100908.25
2022-08-17T06:05:50.738Z,100904.56
2022-08-17T06:08:38.415Z,100911.28
2022-08-17T06:11:33.391Z,100922.81
2022-08-17T06:14:22.161Z,100928.78
2022-08-17T06:16:56.390Z,100928.78
2022-08-17T06:19:32.121Z,100876.16
2022-08-17T06:22:00.300Z,100844.56
2022-08-17T06:24:50.099Z,100926.25
2022-08-17T06:27:21.936Z,100941.50
2022-08-17T06:30:00.266Z,100904.31
2022-08-17T06:32:26.917Z,100903.75
2022-08-17T06:34:53.924Z,100904.56
2022-08-17T06:37:53.987Z,100929.34
2022-08-17T06:40:50.710Z,100934.59
2022-08-17T06:43:32.640Z,100872.38
2022-08-17T06:46:02.264Z,100871.09
2022-08-17T06:48:54.023Z,100863.03
2022-08-17T06:51:28.079Z,100927.41
2022-08-17T06:54:06.579Z,100921.59
2022-08-17T06:56:54.358Z,100906.34
2022-08-17T06:59:53.026Z,100905.66
2022-08-17T07:02:52.194Z,100899.25
2022-08-17T07:05:20.582Z,100883.97
2022-08-17T07:08:21.204Z,100902.06
2022-08-17T07:10:52.927Z,100916.44
2022-08-17T07:13:51.373Z,100908.84
2022-08-17T07:16:47.102Z,100907.88
2022-08-17T07:19:22.490Z,100854.72
2022-08-17T07:22:26.310Z,100899.44
2022-08-17T07:24:58.408Z,100896.03
2022-08-17T07:27:27.667Z,100871.75
2022-08-17T07:30:10.258Z,100891.25
2022-08-17T07:32:45.323Z,100901.81
2022-08-17T07:35:17.726Z,100855.03
2022-08-17T07:38:07.191Z,100905.91
2022-08-17T07:41:02.200Z,100902.66
2022-08-17T07:43:52.289Z,100899.66
2022-08-17T07:46:42.951Z,100833.72
2022-08-17T07:49:09.472Z,100901.28
2022-08-17T07:51:43.778Z,100901.00
2022-08-17T07:54:16.621Z,100850.28
2022-08-17T07:56:45.300Z,100849.53
2022-08-17T07:59:18.179Z,100904.00
2022-08-17T08:02:31.813Z,100895.78
2022-08-17T08:05:12.917Z,100819.13
2022-08-17T08:08:18.596Z,100906.69
2022-08-17T08:10:59.252Z,100900.78
2022-08-17T08:13:29.673Z,100875.53
2022-08-17T08:16:30.133Z,100907.81
2022-08-17T08:18:59.991Z,100821.28
2022-08-17T08:21:49.716Z,100909.22
2022-08-17T08:24:31.652Z,100914.75
2022-08-17T08:27:08.285Z,100850.88
2022-08-17T08:29:56.663Z,100902.84
2022-08-17T08:32:48.053Z,100888.72
2022-08-17T08:35:26.735Z,100912.84
2022-08-17T08:38:01.989Z,100916.28
2022-08-17T08:40:43.703Z,100916.44
2022-08-17T08:43:29.238Z,100912.19
2022-08-17T08:46:03.940Z,100914.97
2022-08-17T08:49:02.670Z,100910.56
2022-08-17T08:51:51.933Z,100915.47
2022-08-17T08:54:34.451Z,100913.56
2022-08-17T08:57:30.961Z,100869.88
2022-08-17T09:00:07.110Z,100897.66
2022-08-17T09:02:52.618Z,100888.44
2022-08-17T09:05:48.419Z,100887.50
2022-08-17T09:08:33.249Z,100890.94
2022-08-17T09:11:24.801Z,100843.22
2022-08-17T09:14:21.833Z,100883.56
2022-08-17T09:17:02.881Z,100883.38
2022-08-17T09:19:32.254Z,100888.75
2022-08-17T09:22:07.623Z,100852.81
2022-08-17T09:24:41.766Z,100876.47
2022-08-17T09:27:13.894Z,100825.47
2022-08-17T09:29:48.228Z,100876.78
2022-08-17T09:32:17.848Z,100877.44
2022-08-17T09:34:52.720Z,100850.56
2022-08-17T09:37:30.286Z,100874.63
2022-08-17T09:40:17.583Z,100872.78
2022-08-17T09:43:26.631Z,100814.44
2022-08-17T09:46:01.871Z,100870.47
2022-08-17T09:48:59.502Z,100876.38
2022-08-17T09:51:35.885Z,100843.84
2022-08-17T09:54:34.822Z,100865.06
2022-08-17T09:57:30.782Z,100865.47
2022-08-17T10:00:16.109Z,100873.25
2022-08-17T10:02:55.258Z,100883.25
2022-08-17T10:05:49.207Z,100857.44
2022-08-17T10:08:57.314Z,100874.56
2022-08-17T10:11:52.174Z,100795.72
2022-08-17T10:14:36.742Z,100842.69
2022-08-17T10:17:33.326Z,100889.38
2022-08-17T10:20:27.928Z,100836.66
2022-08-17T10:23:24.196Z,100870.66
2022-08-17T10:26:13.284Z,100873.38
2022-08-17T10:28:56.038Z,100868.88
2022-08-17T10:31:39.778Z,100799.41
2022-08-17T10:34:41.058Z,100879.47
2022-08-17T10:37:30.147Z,100877.16
2022-08-17T10:40:15.794Z,100884.56
2022-08-17T10:42:48.562Z,100869.59
2022-08-17T10:45:15.052Z,100863.97
2022-08-17T10:48:06.197Z,100872.91
2022-08-17T10:51:00.152Z,100854.44
2022-08-17T10:53:32.916Z,100871.22
2022-08-17T10:56:11.841Z,100872.50
2022-08-17T10:58:54.006Z,100863.94
2022-08-17T11:01:33.056Z,100869.88
2022-08-17T11:04:25.166Z,100872.34
2022-08-17T11:07:02.059Z,100818.47
2022-08-17T11:09:59.705Z,100848.47
2022-08-17T11:12:29.352Z,100820.00
2022-08-17T11:14:59.554Z,100871.56
2022-08-17T11:17:45.809Z,100851.97
2022-08-17T11:20:24.684Z,100799.28
2022-08-17T11:23:03.468Z,100862.44
2022-08-17T11:25:33.085Z,100861.66
2022-08-17T11:28:13.935Z,100802.94
2022-08-17T11:30:51.041Z,100854.09
2022-08-17T11:33:29.981Z,100796.13
2022-08-17T11:36:36.532Z,100717.16
2022-08-17T11:39:30.718Z,100841.28
2022-08-17T11:42:06.495Z,100848.28
2022-08-17T11:44:42.230Z,100846.34
2022-08-17T11:47:57.003Z,100851.38
2022-08-17T11:50:56.584Z,100856.91
2022-08-17T11:53:38.063Z,100782.97
2022-08-17T11:56:04.683Z,100858.97
2022-08-17T11:58:31.260Z,100844.09
2022-08-17T12:01:00.835Z,100840.06
2022-08-17T12:03:33.673Z,100819.75
2022-08-17T12:06:31.052Z,100806.69
2022-08-17T12:09:10.326Z,100823.56
2022-08-17T12:12:11.381Z,100770.97
2022-08-17T12:15:08.353Z,100820.91
2022-08-17T12:17:41.442Z,100828.06
2022-08-17T12:20:24.601Z,100729.06
2022-08-17T12:23:04.143Z,100812.88
2022-08-17T12:25:56.338Z,100795.88
2022-08-17T12:28:30.330Z,100745.19
2022-08-17T12:31:06.847Z,100834.25
2022-08-17T12:33:36.901Z,100799.81
2022-08-17T12:36:08.549Z,100786.09
2022-08-17T12:38:38.076Z,100791.53
2022-08-17T12:41:28.934Z,100806.56
2022-08-17T12:44:03.697Z,100799.38
2022-08-17T12:46:35.838Z,100815.88
2022-08-17T12:49:32.921Z,100794.63
2022-08-17T12:52:05.848Z,100819.13
2022-08-17T12:54:45.023Z,100811.97
2022-08-17T12:57:15.750Z,100818.47
2022-08-17T12:59:46.759Z,100807.34
2022-08-17T13:02:31.756Z,100790.66
2022-08-17T13:05:01.030Z,100790.25
2022-08-17T13:07:42.516Z,100814.59
2022-08-17T13:10:17.491Z,100811.34
2022-08-17T13:12:44.111Z,100788.38
2022-08-17T13:15:21.314Z,100805.22
2022-08-17T13:17:57.398Z,100711.72
2022-08-17T13:20:24.084Z,100815.66
2022-08-17T13:23:03.178Z,100784.66
2022-08-17T13:25:30.841Z,100796.69
2022-08-17T13:27:57.741Z,100781.41
2022-08-17T13:30:33.278Z,100791.72
2022-08-17T13:33:04.712Z,100733.38
2022-08-17T13:35:47.135Z,100742.84
2022-08-17T13:38:39.469Z,100704.81
2022-08-17T13:41:07.568Z,100761.19
2022-08-17T13:43:44.755Z,100734.97
2022-08-17T13:46:25.113Z,100730.94
2022-08-17T13:49:05.526Z,100759.28
2022-08-17T13:51:44.320Z,100715.84
2022-08-17T13:54:50.833Z,100691.09
2022-08-17T13:57:23.522Z,100682.69
2022-08-17T13:59:55.723Z,100705.31
2022-08-17T14:02:27.595Z,100683.41
2022-08-17T14:04:56.675Z,100661.31
2022-08-17T14:07:28.965Z,100512.53
2022-08-17T14:09:59.458Z,100562.03
2022-08-17T14:12:30.522Z,100602.47
2022-08-17T14:14:58.906Z,100625.28
2022-08-17T14:17:28.948Z,100648.09
2022-08-17T14:19:56.587Z,100663.13
2022-08-17T14:22:36.958Z,100669.69
2022-08-17T14:25:05.875Z,100673.09
2022-08-17T14:27:47.113Z,100638.66
2022-08-17T14:30:22.088Z,100648.00
2022-08-17T14:32:49.596Z,100510.88
2022-08-17T14:35:16.328Z,100669.50
2022-08-17T14:37:45.696Z,100589.25
2022-08-17T14:40:14.406Z,100537.25
2022-08-17T14:42:44.268Z,100616.09
2022-08-17T14:45:29.719Z,100713.72
2022-08-17T14:48:01.780Z,100690.59
2022-08-17T14:50:35.593Z,100656.84
2022-08-17T14:53:03.931Z,100730.88
2022-08-17T14:55:31.178Z,100619.22
2022-08-17T14:57:58.182Z,100731.81
2022-08-17T15:00:25.432Z,100726.00
2022-08-17T15:02:58.470Z,100728.81
2022-08-17T15:05:31.462Z,100703.03
2022-08-17T15:07:58.955Z,100732.81
2022-08-17T15:10:26.050Z,100702.06
2022-08-17T15:12:52.909Z,100734.94
2022-08-17T15:15:22.006Z,100691.44
2022-08-17T15:17:49.103Z,100737.16
2022-08-17T15:20:19.593Z,100648.53
2022-08-17T15:22:49.714Z,100692.25
2022-08-17T15:25:19.155Z,100724.63
2022-08-17T15:27:46.188Z,100719.63
2022-08-17T15:30:13.251Z,100667.22
2022-08-17T15:32:45.832Z,100648.53
2022-08-17T15:35:28.076Z,100715.94
2022-08-17T15:38:06.485Z,100687.84
2022-08-17T15:40:38.930Z,100701.88
2022-08-17T15:43:08.009Z,100693.00
2022-08-17T15:45:35.318Z,100606.53
2022-08-17T15:48:02.375Z,100659.44
2022-08-17T15:50:29.073Z,100683.47
2022-08-17T15:52:58.353Z,100683.81
2022-08-17T15:55:27.278Z,100663.84
2022-08-17T15:57:54.250Z,100685.28
2022-08-17T16:00:24.139Z,100623.19
2022-08-17T16:03:47.027Z,100693.84
2022-08-17T16:05:37.602Z,100698.06
2022-08-17T16:08:07.308Z,100700.53
2022-08-17T16:10:35.779Z,100713.13
2022-08-17T16:13:04.189Z,100706.94
2022-08-17T16:15:31.901Z,100694.66
2022-08-17T16:17:59.358Z,100704.97
2022-08-17T16:20:26.053Z,100650.84
2022-08-17T16:22:54.466Z,100683.81
2022-08-17T16:25:38.353Z,100688.75
2022-08-17T16:28:14.248Z,100678.28
2022-08-17T16:30:41.407Z,100637.13
2022-08-17T16:33:11.344Z,100658.81
2022-08-17T16:35:38.461Z,100635.66
2022-08-17T16:38:05.454Z,100634.00
2022-08-17T16:40:35.689Z,100642.72
2022-08-17T16:43:04.398Z,100628.19
2022-08-17T16:45:40.563Z,100636.69
2022-08-17T16:48:08.005Z,100619.28
2022-08-17T17:16:36.095Z,100671.53
2022-08-17T17:19:38.293Z,100682.38
2022-08-17T17:22:19.585Z,100675.16
2022-08-17T17:25:09.878Z,100677.47
2022-08-17T17:27:58.928Z,100671.97
2022-08-17T17:30:43.609Z,100625.13
2022-08-17T17:33:19.150Z,100628.06
2022-08-17T17:36:06.998Z,100679.97
2022-08-17T17:38:33.527Z,100707.72
2022-08-17T17:41:15.689Z,100667.19
2022-08-17T17:43:43.079Z,100680.63
2022-08-17T17:46:27.292Z,100824.03
2022-08-17T17:48:59.561Z,100888.06
2022-08-17T17:52:08.550Z,100824.53
2022-08-17T17:55:07.081Z,100940.94
2022-08-17T17:58:09.591Z,100895.56
2022-08-17T18:01:04.324Z,100947.53
2022-08-17T18:03:52.687Z,100969.28
2022-08-17T18:06:28.231Z,100905.03
2022-08-17T18:09:33.868Z,100878.88
2022-08-17T18:12:16.051Z,100972.22
2022-08-17T18:14:54.776Z,100984.31
2022-08-17T18:17:21.422Z,100943.88
2022-08-17T18:19:48.319Z,100925.53
2022-08-17T18:22:20.874Z,100938.44
2022-08-17T18:24:57.242Z,100959.53
2022-08-17T18:27:32.304Z,100958.56
2022-08-17T18:30:19.469Z,100934.00
2022-08-17T18:32:46.678Z,100977.47
2022-08-17T18:35:16.070Z,100965.97
2022-08-17T18:37:48.162Z,100972.81
2022-08-17T18:40:18.380Z,100981.66
2022-08-17T18:42:57.178Z,100984.63
2022-08-17T18:45:35.224Z,100968.00
2022-08-17T18:48:05.713Z,100934.63
2022-08-17T18:50:41.550Z,100932.63
2022-08-17T18:53:34.065Z,100903.53
2022-08-17T18:56:34.184Z,100963.13
2022-08-17T18:59:00.968Z,100954.81
2022-08-17T19:01:52.450Z,100886.47
2022-08-17T19:04:34.135Z,100883.16
2022-08-17T19:07:16.702Z,100940.03
2022-08-17T19:09:52.893Z,100914.22
2022-08-17T19:12:34.824Z,100882.59
2022-08-17T19:15:02.933Z,100937.38
2022-08-17T19:17:44.446Z,100921.69
2022-08-17T19:20:34.318Z,100931.22
2022-08-17T19:23:36.630Z,100883.78
2022-08-17T19:26:07.312Z,100906.53
2022-08-17T19:29:06.907Z,100795.78
2022-08-17T19:31:33.622Z,100906.41
2022-08-17T19:34:01.802Z,100888.78
2022-08-17T19:37:00.973Z,100914.41
2022-08-17T19:39:40.368Z,100900.91
2022-08-17T19:42:39.211Z,100898.41
2022-08-17T19:45:12.301Z,100897.34
2022-08-17T19:47:55.158Z,100861.56
2022-08-17T19:50:38.397Z,100906.00
2022-08-17T19:53:54.261Z,100911.31
2022-08-17T19:56:35.180Z,100920.56
2022-08-17T19:59:52.990Z,100914.66
2022-08-17T20:02:33.718Z,100887.06
2022-08-17T20:05:07.893Z,100906.34
2022-08-17T20:07:44.475Z,100878.25
2022-08-17T20:10:48.010Z,100908.72
2022-08-17T20:13:38.826Z,100920.56
2022-08-17T20:16:06.000Z,100918.16
2022-08-17T20:18:47.696Z,100881.91
2022-08-17T20:21:39.177Z,100901.38
2022-08-17T20:24:21.265Z,100781.28
2022-08-17T20:26:58.655Z,100890.94
2022-08-17T20:29:37.845Z,100855.28
2022-08-17T20:32:13.686Z,100900.41
2022-08-17T20:34:47.966Z,100889.53
2022-08-17T20:37:14.615Z,100892.97
2022-08-17T20:39:44.641Z,100899.94
2022-08-17T20:42:21.810Z,100913.22
2022-08-17T20:44:57.652Z,100855.88
2022-08-17T20:48:15.130Z,100889.75
2022-08-17T20:50:41.786Z,100878.41
2022-08-17T20:53:32.263Z,100868.34
2022-08-17T20:55:58.982Z,100872.97
2022-08-17T20:58:31.114Z,100897.72
2022-08-17T21:00:58.719Z,100904.09
2022-08-17T21:03:26.799Z,100837.78
2022-08-17T21:05:59.830Z,100882.91
2022-08-17T21:08:35.554Z,100888.13
2022-08-17T21:11:56.882Z,100887.88
2022-08-17T21:14:28.680Z,100865.28
2022-08-17T21:17:18.473Z,100879.94
2022-08-17T21:20:00.600Z,100877.94
2022-08-17T21:22:47.078Z,100873.69
2022-08-17T21:25:39.418Z,100857.56
2022-08-17T21:28:10.029Z,100873.69
2022-08-17T21:30:39.259Z,100820.16
2022-08-17T21:33:27.523Z,100850.00
2022-08-17T21:36:17.196Z,100853.53
2022-08-17T21:38:57.458Z,100845.13
2022-08-17T21:41:33.795Z,100843.00
2022-08-17T21:44:12.236Z,100642.19
2022-08-17T21:46:42.978Z,100840.28
2022-08-17T21:49:19.399Z,100866.09
2022-08-17T21:51:53.769Z,100858.50
2022-08-17T21:54:34.949Z,100808.69
2022-08-17T21:57:04.629Z,100862.91
2022-08-17T21:59:37.700Z,100877.81
2022-08-17T22:02:16.804Z,100854.72
2022-08-17T22:04:55.009Z,100867.41
2022-08-17T22:07:53.084Z,100834.03
2022-08-17T22:10:35.298Z,100878.41
2022-08-17T22:13:17.343Z,100881.38
2022-08-17T22:16:15.390Z,100886.00
2022-08-17T22:18:55.749Z,100889.91
2022-08-17T22:21:22.621Z,100899.56
2022-08-17T22:24:05.069Z,100900.38
2022-08-17T22:26:59.276Z,100904.19
2022-08-17T22:30:00.325Z,100904.88
2022-08-17T22:32:47.714Z,100838.66
2022-08-17T22:35:36.032Z,100850.53
2022-08-17T22:38:18.718Z,100899.91
2022-08-17T22:40:56.460Z,100858.00
2022-08-17T22:43:26.297Z,100882.84
2022-08-17T22:45:59.295Z,100899.44
2022-08-17T22:48:28.480Z,100890.19
2022-08-17T22:51:12.588Z,100859.31
2022-08-17T22:54:06.988Z,100877.78
2022-08-17T22:56:54.018Z,100886.41
2022-08-17T22:59:54.486Z,100874.34
2022-08-17T23:02:26.052Z,100872.69
2022-08-17T23:04:55.698Z,100865.34
2022-08-17T23:07:22.349Z,100858.81
2022-08-17T23:09:51.118Z,100867.63
2022-08-17T23:12:24.059Z,100861.44
2022-08-17T23:14:58.441Z,100847.00
2022-08-17T23:17:25.188Z,100879.28
2022-08-17T23:19:51.850Z,100885.09
2022-08-17T23:22:18.517Z,100879.06
2022-08-17T23:24:49.030Z,100869.13
2022-08-17T23:27:16.268Z,100822.22
2022-08-17T23:29:43.099Z,100855.97
2022-08-17T23:32:14.753Z,100841.19
2022-08-17T23:34:43.328Z,100828.91
2022-08-17T23:37:11.564Z,100817.06
2022-08-17T23:39:39.569Z,100814.44
2022-08-17T23:42:08.436Z,100770.22
2022-08-17T23:44:37.912Z,100815.03
2022-08-17T23:47:05.713Z,100841.31
2022-08-17T23:49:32.387Z,100837.88
2022-08-17T23:52:01.842Z,100842.13
2022-08-17T23:54:35.688Z,100838.56
2022-08-17T23:57:04.786Z,100840.00
2022-08-17T23:59:33.003Z,100777.13
